Delaware — WDJ3161 — position and weather

sailwx.info

Track history (hours):
 
Tides and Currents Weather Stations Pressure Air Temp Water Temp Dewpoint Dewpoint Depression Visibility Wind Speed Wind Dir Waves Ship Positions

Delaware

Owner: Vane Line Bunkering, Inc., Philadelphia, PA. More information available from US FCC via Universal Licensing System and Coast Guard Vessel Documentation Center.

Last reported at 2018-Jan-23 02:12 UTC. Time now 2018-Jan-23 16:09 UTC.
Position N 40°51' W 073°45'.

Length 32 m.

Type: Tug. MMSI: 367303000.

Date/timePositionNaut miles runAvg speedWind from/ knotsBaromVisibWave heightAir tempDewpointWater temp
2018-Jan-23 02:12N 40°51' W 073°45'2 8.6
2018-Jan-23 02:00N 40°50' W 073°47'3 6.9
2018-Jan-23 01:30N 40°48' W 073°50'4 7.9
2018-Jan-23 01:00N 40°47' W 073°55'2 4.6
2018-Jan-23 00:30N 40°45' W 073°58'3 6.6
2018-Jan-23 00:00N 40°42' W 073°59'4 7.1
2018-Jan-22 23:30N 40°39' W 074°02'1 1.7
2018-Jan-22 23:00N 40°39' W 074°03'0 0.0
2018-Jan-22 22:30N 40°39' W 074°03'0 0.0
2018-Jan-22 22:00N 40°39' W 074°03'0 0.0
2018-Jan-22 21:30N 40°39' W 074°03'0 0.1
2018-Jan-22 21:00N 40°39' W 074°03'0 0.1
2018-Jan-22 20:30N 40°39' W 074°03'0 0.0
2018-Jan-22 20:00N 40°39' W 074°03'0 0.0
2018-Jan-22 19:30N 40°39' W 074°03'0 0.0
2018-Jan-22 19:00N 40°39' W 074°03'0 0.3
2018-Jan-22 18:30N 40°39' W 074°03'4 7.8
2018-Jan-22 18:00N 40°39' W 074°08'3 6.7
2018-Jan-22 17:30N 40°38' W 074°12'4 7.2
2018-Jan-22 16:59N 40°34' W 074°13'2 0.1
2018-Jan-21 15:06N 40°33' W 074°15'1 7.1
2018-Jan-21 14:59N 40°33' W 074°14'3 6.0
2018-Jan-21 14:30N 40°36' W 074°12'3 6.6
2018-Jan-21 14:00N 40°39' W 074°10'4 8.3
2018-Jan-21 13:30N 40°39' W 074°05'4 8.3
2018-Jan-21 13:00N 40°41' W 074°00'3 6.3
2018-Jan-21 12:30N 40°44' W 073°58'3 6.3
2018-Jan-21 12:00N 40°47' W 073°56'2 3.1
2018-Jan-21 11:29N 40°48' W 073°54'0 0.0
2018-Jan-21 11:00N 40°48' W 073°54'0 0.0
2018-Jan-21 10:30N 40°48' W 073°54'0 0.0
2018-Jan-21 09:50N 40°48' W 073°54'0 0.0
2018-Jan-21 09:29N 40°48' W 073°54'0 0.0
2018-Jan-21 09:00N 40°48' W 073°54'0 0.0
2018-Jan-21 08:30N 40°48' W 073°54'0 0.0
2018-Jan-21 08:00N 40°48' W 073°54'0 0.0
2018-Jan-21 07:27N 40°48' W 073°54'0 0.0
2018-Jan-21 06:59N 40°48' W 073°54'0 0.0
2018-Jan-21 06:29N 40°48' W 073°54'0 0.0
2018-Jan-21 06:00N 40°48' W 073°54'0 0.0
2018-Jan-21 05:30N 40°48' W 073°54'0 0.0
2018-Jan-21 04:58N 40°48' W 073°54'0 0.0
2018-Jan-21 04:30N 40°48' W 073°54'0 0.0
2018-Jan-21 04:00N 40°48' W 073°54'0 0.0
2018-Jan-21 03:24N 40°48' W 073°54'0 0.0
2018-Jan-21 02:59N 40°48' W 073°54'0 0.0
2018-Jan-21 02:28N 40°48' W 073°54'0 0.0
2018-Jan-21 02:00N 40°48' W 073°54'0 0.0
2018-Jan-21 01:28N 40°48' W 073°54'0 0.0
2018-Jan-21 00:59N 40°48' W 073°54'0 0.0
2018-Jan-21 00:28N 40°48' W 073°54'0 0.0
2018-Jan-21 00:00N 40°48' W 073°54'0 0.0
2018-Jan-20 23:30N 40°48' W 073°54'0 0.0
2018-Jan-20 22:59N 40°48' W 073°54'0 0.0
2018-Jan-20 22:23N 40°48' W 073°54'0 0.0
2018-Jan-20 21:21N 40°48' W 073°54'0 0.0
2018-Jan-20 21:00N 40°48' W 073°54'0 0.0
2018-Jan-20 20:29N 40°48' W 073°54'0 0.0
2018-Jan-20 20:00N 40°48' W 073°54'0 0.0
2018-Jan-20 19:30N 40°48' W 073°54'0 0.0
2018-Jan-20 19:00N 40°48' W 073°54'0 0.0
2018-Jan-20 18:18N 40°48' W 073°54'0 0.0
2018-Jan-20 17:50N 40°48' W 073°54'0 0.0
2018-Jan-20 17:30N 40°48' W 073°54'0 0.0
2018-Jan-20 16:59N 40°48' W 073°54'0 0.0
2018-Jan-20 16:30N 40°48' W 073°54'0 0.0
2018-Jan-20 16:00N 40°48' W 073°54'0 0.0
2018-Jan-20 15:30N 40°48' W 073°54'0 0.0
2018-Jan-20 15:00N 40°48' W 073°54'0 0.0
2018-Jan-20 14:29N 40°48' W 073°54'0 0.0
2018-Jan-20 13:57N 40°48' W 073°54'0 0.0
2018-Jan-20 13:30N 40°48' W 073°54'0 0.0
2018-Jan-20 12:59N 40°48' W 073°54'0 0.0
2018-Jan-20 12:30N 40°48' W 073°54'0 0.0
2018-Jan-20 12:00N 40°48' W 073°54'0 0.0
2018-Jan-20 11:30N 40°48' W 073°54'0 0.0
2018-Jan-20 11:00N 40°48' W 073°54'0 0.0
2018-Jan-20 10:29N 40°48' W 073°54'0 0.0
2018-Jan-20 10:00N 40°48' W 073°54'0 0.0
2018-Jan-20 09:29N 40°48' W 073°54'0 0.0
2018-Jan-20 08:59N 40°48' W 073°54'0 0.0
2018-Jan-20 08:30N 40°48' W 073°54'0 0.0
2018-Jan-20 08:00N 40°48' W 073°54'0 0.0
2018-Jan-20 07:30N 40°48' W 073°54'0 0.0
2018-Jan-20 07:00N 40°48' W 073°54'0 0.0
2018-Jan-20 06:30N 40°48' W 073°54'0 0.0
2018-Jan-20 06:00N 40°48' W 073°54'0 0.0
2018-Jan-20 05:30N 40°48' W 073°54'0 0.0
2018-Jan-20 05:00N 40°48' W 073°54'0 0.2
2018-Jan-20 04:28N 40°48' W 073°54'2 4.5
2018-Jan-20 04:00N 40°47' W 073°56'4 7.6
2018-Jan-20 03:30N 40°43' W 073°58'4 8.1
2018-Jan-20 03:00N 40°40' W 074°02'3 6.6
2018-Jan-20 02:30N 40°39' W 074°06'1 1.4
2018-Jan-20 02:00N 40°39' W 074°07'0 0.9
2018-Jan-20 01:30N 40°39' W 074°07'0 0.0
2018-Jan-20 01:00N 40°39' W 074°07'0 0.0
2018-Jan-20 00:29N 40°39' W 074°07'0 0.0
2018-Jan-20 00:00N 40°39' W 074°07'0 0.0
2018-Jan-19 23:30N 40°39' W 074°07'0 0.0
2018-Jan-19 23:00N 40°39' W 074°07'0 0.0
2018-Jan-19 22:30N 40°39' W 074°07'0 0.0
2018-Jan-19 21:59N 40°39' W 074°07'0 0.0
2018-Jan-19 21:30N 40°39' W 074°07'0 0.0
2018-Jan-19 21:00N 40°39' W 074°07'0 0.0
2018-Jan-19 20:30N 40°39' W 074°07'1 1.4
2018-Jan-19 20:00N 40°39' W 074°06'3 6.3
2018-Jan-19 19:30N 40°39' W 074°02'2 3.7
2018-Jan-19 19:01N 40°40' W 074°00'0 0.0
2018-Jan-19 18:30N 40°40' W 074°00'0 0.0
2018-Jan-19 18:00N 40°40' W 074°00'0 0.0
2018-Jan-19 17:30N 40°40' W 074°00'0 0.0
2018-Jan-19 17:00N 40°40' W 074°00'0 0.0
2018-Jan-19 16:30N 40°40' W 074°00'0 0.0
2018-Jan-19 16:00N 40°40' W 074°00'0 0.0
2018-Jan-19 15:30N 40°40' W 074°00'0 0.0
2018-Jan-19 15:00N 40°40' W 074°00'0 0.0
2018-Jan-19 14:30N 40°40' W 074°00'0 0.0
2018-Jan-19 14:00N 40°40' W 074°00'0 0.0
2018-Jan-19 13:30N 40°40' W 074°00'0 0.0
2018-Jan-19 13:00N 40°40' W 074°00'0 0.0
2018-Jan-19 12:30N 40°40' W 074°00'0 0.0
2018-Jan-19 12:00N 40°40' W 074°00'0 0.0
2018-Jan-19 11:30N 40°40' W 074°00'0 0.0
2018-Jan-19 11:00N 40°40' W 074°00'0 0.0
2018-Jan-19 10:30N 40°40' W 074°00'0 0.0
2018-Jan-19 10:00N 40°40' W 074°00'0 0.0
2018-Jan-19 09:30N 40°40' W 074°00'0 0.0
2018-Jan-19 09:00N 40°40' W 074°00'0 0.0
2018-Jan-19 08:30N 40°40' W 074°00'0 0.0
2018-Jan-19 08:00N 40°40' W 074°00'0 0.0
2018-Jan-19 07:30N 40°40' W 074°00'0 0.0
2018-Jan-19 07:00N 40°40' W 074°00'0 0.0
2018-Jan-19 06:30N 40°40' W 074°00'0 0.0
2018-Jan-19 06:00N 40°40' W 074°00'0 0.0
2018-Jan-19 05:30N 40°40' W 074°00'0 0.0
2018-Jan-19 05:00N 40°40' W 074°00'0 0.5
2018-Jan-19 04:30N 40°40' W 074°00'0 0.0
2018-Jan-19 04:00N 40°40' W 074°00'0 0.0
2018-Jan-19 03:30N 40°40' W 074°00'3 5.0
2018-Jan-19 03:00N 40°39' W 074°03'3 6.0
2018-Jan-19 02:30N 40°39' W 074°07'0 0.0
2018-Jan-19 02:00N 40°39' W 074°07'3 5.1
2018-Jan-19 01:30N 40°39' W 074°04'1 1.9
2018-Jan-19 01:00N 40°39' W 074°02'0 0.0
2018-Jan-19 00:30N 40°39' W 074°02'0 0.0
2018-Jan-19 00:00N 40°39' W 074°02'0 0.0
2018-Jan-18 23:30N 40°39' W 074°02'0 0.0
2018-Jan-18 23:00N 40°39' W 074°02'0 0.1
2018-Jan-18 22:30N 40°39' W 074°02'0 0.0
2018-Jan-18 22:00N 40°39' W 074°02'0 0.1
2018-Jan-18 21:30N 40°39' W 074°02'0 0.0
2018-Jan-18 21:00N 40°39' W 074°02'0 0.1
2018-Jan-18 20:30N 40°39' W 074°02'0 0.0
2018-Jan-18 20:00N 40°39' W 074°02'0 0.0
2018-Jan-18 19:30N 40°39' W 074°02'0 0.0
2018-Jan-18 19:00N 40°39' W 074°02'0 0.1
2018-Jan-18 18:30N 40°39' W 074°02'0 0.0
2018-Jan-18 18:00N 40°39' W 074°02'0 0.0
2018-Jan-18 17:30N 40°39' W 074°02'0 0.3
2018-Jan-18 17:01N 40°39' W 074°02'4 8.2
2018-Jan-18 16:30N 40°42' W 073°60'4 8.8
2018-Jan-18 16:00N 40°46' W 073°57'3 5.6
2018-Jan-18 15:30N 40°48' W 073°54'0 0.5
2018-Jan-18 14:55N 40°48' W 073°54'0 0.0
2018-Jan-18 14:28N 40°48' W 073°54'0 0.0
2018-Jan-18 14:00N 40°48' W 073°54'0 0.0
2018-Jan-18 13:30N 40°48' W 073°54'0 0.0
2018-Jan-18 12:58N 40°48' W 073°54'0 0.0
2018-Jan-18 05:29N 40°48' W 073°54'0 0.0
2018-Jan-18 04:56N 40°48' W 073°54'0 0.0
2018-Jan-18 04:30N 40°48' W 073°54'0 0.0
2018-Jan-18 04:00N 40°48' W 073°54'1 1.2
2018-Jan-18 03:30N 40°48' W 073°55'4 7.3
2018-Jan-18 03:00N 40°45' W 073°58'4 7.5
2018-Jan-18 02:30N 40°42' W 074°00'2 4.3
2018-Jan-18 02:00N 40°40' W 074°02'0 0.1
2018-Jan-18 01:30N 40°40' W 074°02'0 0.1
2018-Jan-18 01:00N 40°40' W 074°02'0 0.0
2018-Jan-18 00:00N 40°40' W 074°02'0 0.2
2018-Jan-17 23:57N 40°40' W 074°02'  
Track history (hours):
 
Tides and Currents Weather Stations Pressure Air Temp Water Temp Dewpoint Dewpoint Depression Visibility Wind Speed Wind Dir Waves Ship Positions

Delaware

Owner: Vane Line Bunkering, Inc., Philadelphia, PA. More information available from US FCC via Universal Licensing System and Coast Guard Vessel Documentation Center.

Last reported at 2018-Jan-23 02:12 UTC. Time now 2018-Jan-23 16:09 UTC.
Position N 40°51' W 073°45'.

Length 32 m.

Type: Tug. MMSI: 367303000.

Date/timePositionNaut miles runAvg speedWind from/ knotsBaromVisibWave heightAir tempDewpointWater temp
2018-Jan-23 02:12N 40°51' W 073°45'2 8.6
2018-Jan-23 02:00N 40°50' W 073°47'3 6.9
2018-Jan-23 01:30N 40°48' W 073°50'4 7.9
2018-Jan-23 01:00N 40°47' W 073°55'2 4.6
2018-Jan-23 00:30N 40°45' W 073°58'3 6.6
2018-Jan-23 00:00N 40°42' W 073°59'4 7.1
2018-Jan-22 23:30N 40°39' W 074°02'1 1.7
2018-Jan-22 23:00N 40°39' W 074°03'0 0.0
2018-Jan-22 22:30N 40°39' W 074°03'0 0.0
2018-Jan-22 22:00N 40°39' W 074°03'0 0.0
2018-Jan-22 21:30N 40°39' W 074°03'0 0.1
2018-Jan-22 21:00N 40°39' W 074°03'0 0.1
2018-Jan-22 20:30N 40°39' W 074°03'0 0.0
2018-Jan-22 20:00N 40°39' W 074°03'0 0.0
2018-Jan-22 19:30N 40°39' W 074°03'0 0.0
2018-Jan-22 19:00N 40°39' W 074°03'0 0.3
2018-Jan-22 18:30N 40°39' W 074°03'4 7.8
2018-Jan-22 18:00N 40°39' W 074°08'3 6.7
2018-Jan-22 17:30N 40°38' W 074°12'4 7.2
2018-Jan-22 16:59N 40°34' W 074°13'2 0.1
2018-Jan-21 15:06N 40°33' W 074°15'1 7.1
2018-Jan-21 14:59N 40°33' W 074°14'3 6.0
2018-Jan-21 14:30N 40°36' W 074°12'3 6.6
2018-Jan-21 14:00N 40°39' W 074°10'4 8.3
2018-Jan-21 13:30N 40°39' W 074°05'4 8.3
2018-Jan-21 13:00N 40°41' W 074°00'3 6.3
2018-Jan-21 12:30N 40°44' W 073°58'3 6.3
2018-Jan-21 12:00N 40°47' W 073°56'2 3.1
2018-Jan-21 11:29N 40°48' W 073°54'0 0.0
2018-Jan-21 11:00N 40°48' W 073°54'0 0.0
2018-Jan-21 10:30N 40°48' W 073°54'0 0.0
2018-Jan-21 09:50N 40°48' W 073°54'0 0.0
2018-Jan-21 09:29N 40°48' W 073°54'0 0.0
2018-Jan-21 09:00N 40°48' W 073°54'0 0.0
2018-Jan-21 08:30N 40°48' W 073°54'0 0.0
2018-Jan-21 08:00N 40°48' W 073°54'0 0.0
2018-Jan-21 07:27N 40°48' W 073°54'0 0.0
2018-Jan-21 06:59N 40°48' W 073°54'0 0.0
2018-Jan-21 06:29N 40°48' W 073°54'0 0.0
2018-Jan-21 06:00N 40°48' W 073°54'0 0.0
2018-Jan-21 05:30N 40°48' W 073°54'0 0.0
2018-Jan-21 04:58N 40°48' W 073°54'0 0.0
2018-Jan-21 04:30N 40°48' W 073°54'0 0.0
2018-Jan-21 04:00N 40°48' W 073°54'0 0.0
2018-Jan-21 03:24N 40°48' W 073°54'0 0.0
2018-Jan-21 02:59N 40°48' W 073°54'0 0.0
2018-Jan-21 02:28N 40°48' W 073°54'0 0.0
2018-Jan-21 02:00N 40°48' W 073°54'0 0.0
2018-Jan-21 01:28N 40°48' W 073°54'0 0.0
2018-Jan-21 00:59N 40°48' W 073°54'0 0.0
2018-Jan-21 00:28N 40°48' W 073°54'0 0.0
2018-Jan-21 00:00N 40°48' W 073°54'0 0.0
2018-Jan-20 23:30N 40°48' W 073°54'0 0.0
2018-Jan-20 22:59N 40°48' W 073°54'0 0.0
2018-Jan-20 22:23N 40°48' W 073°54'0 0.0
2018-Jan-20 21:21N 40°48' W 073°54'0 0.0
2018-Jan-20 21:00N 40°48' W 073°54'0 0.0
2018-Jan-20 20:29N 40°48' W 073°54'0 0.0
2018-Jan-20 20:00N 40°48' W 073°54'0 0.0
2018-Jan-20 19:30N 40°48' W 073°54'0 0.0
2018-Jan-20 19:00N 40°48' W 073°54'0 0.0
2018-Jan-20 18:18N 40°48' W 073°54'0 0.0
2018-Jan-20 17:50N 40°48' W 073°54'0 0.0
2018-Jan-20 17:30N 40°48' W 073°54'0 0.0
2018-Jan-20 16:59N 40°48' W 073°54'0 0.0
2018-Jan-20 16:30N 40°48' W 073°54'0 0.0
2018-Jan-20 16:00N 40°48' W 073°54'0 0.0
2018-Jan-20 15:30N 40°48' W 073°54'0 0.0
2018-Jan-20 15:00N 40°48' W 073°54'0 0.0
2018-Jan-20 14:29N 40°48' W 073°54'0 0.0
2018-Jan-20 13:57N 40°48' W 073°54'0 0.0
2018-Jan-20 13:30N 40°48' W 073°54'0 0.0
2018-Jan-20 12:59N 40°48' W 073°54'0 0.0
2018-Jan-20 12:30N 40°48' W 073°54'0 0.0
2018-Jan-20 12:00N 40°48' W 073°54'0 0.0
2018-Jan-20 11:30N 40°48' W 073°54'0 0.0
2018-Jan-20 11:00N 40°48' W 073°54'0 0.0
2018-Jan-20 10:29N 40°48' W 073°54'0 0.0
2018-Jan-20 10:00N 40°48' W 073°54'0 0.0
2018-Jan-20 09:29N 40°48' W 073°54'0 0.0
2018-Jan-20 08:59N 40°48' W 073°54'0 0.0
2018-Jan-20 08:30N 40°48' W 073°54'0 0.0
2018-Jan-20 08:00N 40°48' W 073°54'0 0.0
2018-Jan-20 07:30N 40°48' W 073°54'0 0.0
2018-Jan-20 07:00N 40°48' W 073°54'0 0.0
2018-Jan-20 06:30N 40°48' W 073°54'0 0.0
2018-Jan-20 06:00N 40°48' W 073°54'0 0.0
2018-Jan-20 05:30N 40°48' W 073°54'0 0.0
2018-Jan-20 05:00N 40°48' W 073°54'0 0.2
2018-Jan-20 04:28N 40°48' W 073°54'2 4.5
2018-Jan-20 04:00N 40°47' W 073°56'4 7.6
2018-Jan-20 03:30N 40°43' W 073°58'4 8.1
2018-Jan-20 03:00N 40°40' W 074°02'3 6.6
2018-Jan-20 02:30N 40°39' W 074°06'1 1.4
2018-Jan-20 02:00N 40°39' W 074°07'0 0.9
2018-Jan-20 01:30N 40°39' W 074°07'0 0.0
2018-Jan-20 01:00N 40°39' W 074°07'0 0.0
2018-Jan-20 00:29N 40°39' W 074°07'0 0.0
2018-Jan-20 00:00N 40°39' W 074°07'0 0.0
2018-Jan-19 23:30N 40°39' W 074°07'0 0.0
2018-Jan-19 23:00N 40°39' W 074°07'0 0.0
2018-Jan-19 22:30N 40°39' W 074°07'0 0.0
2018-Jan-19 21:59N 40°39' W 074°07'0 0.0
2018-Jan-19 21:30N 40°39' W 074°07'0 0.0
2018-Jan-19 21:00N 40°39' W 074°07'0 0.0
2018-Jan-19 20:30N 40°39' W 074°07'1 1.4
2018-Jan-19 20:00N 40°39' W 074°06'3 6.3
2018-Jan-19 19:30N 40°39' W 074°02'2 3.7
2018-Jan-19 19:01N 40°40' W 074°00'0 0.0
2018-Jan-19 18:30N 40°40' W 074°00'0 0.0
2018-Jan-19 18:00N 40°40' W 074°00'0 0.0
2018-Jan-19 17:30N 40°40' W 074°00'0 0.0
2018-Jan-19 17:00N 40°40' W 074°00'0 0.0
2018-Jan-19 16:30N 40°40' W 074°00'0 0.0
2018-Jan-19 16:00N 40°40' W 074°00'0 0.0
2018-Jan-19 15:30N 40°40' W 074°00'0 0.0
2018-Jan-19 15:00N 40°40' W 074°00'0 0.0
2018-Jan-19 14:30N 40°40' W 074°00'0 0.0
2018-Jan-19 14:00N 40°40' W 074°00'0 0.0
2018-Jan-19 13:30N 40°40' W 074°00'0 0.0
2018-Jan-19 13:00N 40°40' W 074°00'0 0.0
2018-Jan-19 12:30N 40°40' W 074°00'0 0.0
2018-Jan-19 12:00N 40°40' W 074°00'0 0.0
2018-Jan-19 11:30N 40°40' W 074°00'0 0.0
2018-Jan-19 11:00N 40°40' W 074°00'0 0.0
2018-Jan-19 10:30N 40°40' W 074°00'0 0.0
2018-Jan-19 10:00N 40°40' W 074°00'0 0.0
2018-Jan-19 09:30N 40°40' W 074°00'0 0.0
2018-Jan-19 09:00N 40°40' W 074°00'0 0.0
2018-Jan-19 08:30N 40°40' W 074°00'0 0.0
2018-Jan-19 08:00N 40°40' W 074°00'0 0.0
2018-Jan-19 07:30N 40°40' W 074°00'0 0.0
2018-Jan-19 07:00N 40°40' W 074°00'0 0.0
2018-Jan-19 06:30N 40°40' W 074°00'0 0.0
2018-Jan-19 06:00N 40°40' W 074°00'0 0.0
2018-Jan-19 05:30N 40°40' W 074°00'0 0.0
2018-Jan-19 05:00N 40°40' W 074°00'0 0.5
2018-Jan-19 04:30N 40°40' W 074°00'0 0.0
2018-Jan-19 04:00N 40°40' W 074°00'0 0.0
2018-Jan-19 03:30N 40°40' W 074°00'3 5.0
2018-Jan-19 03:00N 40°39' W 074°03'3 6.0
2018-Jan-19 02:30N 40°39' W 074°07'0 0.0
2018-Jan-19 02:00N 40°39' W 074°07'3 5.1
2018-Jan-19 01:30N 40°39' W 074°04'1 1.9
2018-Jan-19 01:00N 40°39' W 074°02'0 0.0
2018-Jan-19 00:30N 40°39' W 074°02'0 0.0
2018-Jan-19 00:00N 40°39' W 074°02'0 0.0
2018-Jan-18 23:30N 40°39' W 074°02'0 0.0
2018-Jan-18 23:00N 40°39' W 074°02'0 0.1
2018-Jan-18 22:30N 40°39' W 074°02'0 0.0
2018-Jan-18 22:00N 40°39' W 074°02'0 0.1
2018-Jan-18 21:30N 40°39' W 074°02'0 0.0
2018-Jan-18 21:00N 40°39' W 074°02'0 0.1
2018-Jan-18 20:30N 40°39' W 074°02'0 0.0
2018-Jan-18 20:00N 40°39' W 074°02'0 0.0
2018-Jan-18 19:30N 40°39' W 074°02'0 0.0
2018-Jan-18 19:00N 40°39' W 074°02'0 0.1
2018-Jan-18 18:30N 40°39' W 074°02'0 0.0
2018-Jan-18 18:00N 40°39' W 074°02'0 0.0
2018-Jan-18 17:30N 40°39' W 074°02'0 0.3
2018-Jan-18 17:01N 40°39' W 074°02'4 8.2
2018-Jan-18 16:30N 40°42' W 073°60'4 8.8
2018-Jan-18 16:00N 40°46' W 073°57'3 5.6
2018-Jan-18 15:30N 40°48' W 073°54'0 0.5
2018-Jan-18 14:55N 40°48' W 073°54'0 0.0
2018-Jan-18 14:28N 40°48' W 073°54'0 0.0
2018-Jan-18 14:00N 40°48' W 073°54'0 0.0
2018-Jan-18 13:30N 40°48' W 073°54'0 0.0
2018-Jan-18 12:58N 40°48' W 073°54'0 0.0
2018-Jan-18 05:29N 40°48' W 073°54'0 0.0
2018-Jan-18 04:56N 40°48' W 073°54'0 0.0
2018-Jan-18 04:30N 40°48' W 073°54'0 0.0
2018-Jan-18 04:00N 40°48' W 073°54'1 1.2
2018-Jan-18 03:30N 40°48' W 073°55'4 7.3
2018-Jan-18 03:00N 40°45' W 073°58'4 7.5
2018-Jan-18 02:30N 40°42' W 074°00'2 4.3
2018-Jan-18 02:00N 40°40' W 074°02'0 0.1
2018-Jan-18 01:30N 40°40' W 074°02'0 0.1
2018-Jan-18 01:00N 40°40' W 074°02'0 0.0
2018-Jan-18 00:00N 40°40' W 074°02'0 0.2
2018-Jan-17 23:57N 40°40' W 074°02'  

Dump ship's entire track history